x

Ne Bahamas - 350 Nm Ene Of Nassau, Bahamas (41047) Wave Buoy

8:50pm - Sat 20th Dec 2014 All times are UTC.

  • Sig Wave height 3.3ft
  • Swell Direction
  • Peak Period 10s
  • Average Period 7s
  • Wind
    4mph, 9mph gusts
  • Sea Temp 78°f
  • Air Temp 74°f
  • Sea Pressure 1019mb

More Historic Weather Station data

Upgrade to MSW Pro to gain access to the past 30 days of data for over 8000 Wavebouys and Weather Stations around the globe.

Join Pro

Comparision Forecast

View Surf forecast
   
Sat 12/20 8:50pm 3.5ft 10s 7s 4 9 mph 1019mb 78f 74f
7:50pm 3.5ft 10s 7s 4 7 mph 1018.9mb 79f 74f
6:50pm 3.5ft 9s 7s 4 7 mph 1018.9mb 79f 74f
5:50pm 3.5ft 9s 7s 4 7 mph 1019.2mb 79f 74f
4:50pm 3.5ft 10s 7s 2 4 mph 1020.2mb 79f 74f
3:50pm 4ft 9s 7s 2 7 mph 1020.9mb 78f 74f
2:50pm 3.5ft 10s 7s 2 4 mph 1021.3mb 78f 74f
1:50pm 3.5ft 10s 7s 2 4 mph 1020.9mb 78f 74f
12:50pm 4ft 10s 7s 2 4 mph 1020.1mb 78f 75f
11:50am 4ft 10s 7s 4
mph
1019.5mb 78f 74f
10:50am 4ft 10s 7s 4 7 mph 1018.8mb 78f 73f
9:50am 4ft 9s 7s 4 7 mph 1018.2mb 78f 73f
8:50am 3.5ft 9s 7s 4 7 mph 1018mb 78f 73f
7:50am 4ft 10s 7s 4 7 mph 1018mb 78f 73f
6:50am 3.5ft 10s 7s 4
mph
1018.4mb 78f 74f
5:50am 3.5ft 9s 7s  -  2 mph 1018.8mb 78f 74f
4:50am 3.5ft 10s 7s 2 4 mph 1019.2mb 78f 74f
3:50am 3.5ft 10s 6s 4
mph
1019.3mb 78f 74f
2:50am 3.5ft 11s 7s 4 7 mph 1019.4mb 78f 74f
1:50am 3.5ft 11s 6s 7 9 mph 1019.4mb 78f 74f
12:50am 3.5ft 10s 6s 4 7 mph 1018.8mb 78f 74f
Fri 12/19 11:50pm 3.5ft 11s 6s 2 4 mph 1018.5mb 78f 74f
10:50pm 3ft 11s 6s 4 7 mph 1018.2mb 78f 74f
9:50pm 3ft 10s 6s 2 4 mph 1017.7mb 78f 74f
8:50pm 3ft 11s 6s 4 7 mph 1017.4mb 78f 74f
7:50pm 3.5ft 11s 6s 7 9 mph 1017.2mb 78f 74f
6:50pm 3ft 11s 6s 2 4 mph 1017mb 78f 74f
5:50pm 3ft 11s 7s 7 9 mph 1017.7mb 78f 74f
4:50pm 3ft 11s 6s 4 7 mph 1018.3mb 78f 74f
3:50pm 3ft 10s 6s 4 7 mph 1019mb 78f 74f
2:50pm 3.5ft 10s 6s 7 9 mph 1019.2mb 78f 74f
1:50pm 3ft 7s 6s 7 11 mph 1019mb 78f 74f
12:50pm 3.5ft 10s 6s 7 11 mph 1018.4mb 78f 74f
11:50am 3.5ft 11s 6s 9 13 mph 1018.1mb 78f 74f
10:50am 3.5ft 11s 6s 7 9 mph 1017.4mb 78f 74f
9:50am 3.5ft 10s 6s 7 9 mph 1017.1mb 78f 74f
8:50am 4ft 7s 6s 7 9 mph 1017.1mb 78f 74f
7:50am 3.5ft 7s 6s 7 11 mph 1017.4mb 78f 74f
6:50am 3.5ft 9s 6s 4 7 mph 1017.9mb 78f 74f
5:50am 3.5ft 11s 6s 2 4 mph 1018.2mb 78f 74f
4:50am 4ft 10s 6s 4 7 mph 1018.6mb 78f 74f
3:50am 4ft 7s 6s 4 7 mph 1018.8mb 78f 74f
2:50am 4ft 7s 6s 4 7 mph 1018.9mb 78f 74f
1:50am 4.5ft 7s 6s 9 13 mph 1018.6mb 78f 74f
12:50am 4ft 8s 6s 11 16 mph 1018.6mb 78f 74f
Thu 12/18 11:50pm 4.5ft 8s 6s 11 13 mph 1018.7mb 78f 75f
10:50pm 4ft 8s 6s 9 11 mph 1018.3mb 78f 75f
9:50pm 4ft 7s 6s 11 16 mph 1018.2mb 78f 74f
8:50pm 4ft 8s 6s 13 16 mph 1018.1mb 78f 75f
7:50pm 4.5ft 8s 6s 11 13 mph 1018mb 78f 74f
6:50pm 4.5ft 8s 6s 11 13 mph 1018.2mb 78f 74f
5:50pm 4.5ft 9s 7s 11 13 mph 1018.6mb 78f 75f
4:50pm 4.5ft 9s 6s 11 13 mph 1019.5mb 78f 74f
3:50pm 4.5ft 8s 7s 11 13 mph 1020.4mb 78f 75f
2:50pm 4.5ft 8s 7s 11 13 mph 1020.8mb 78f 74f
1:50pm 4.5ft 8s 6s 11 13 mph 1020.6mb 78f 74f
12:50pm 4ft 9s 6s 11 16 mph 1019.7mb 78f 73f
11:50am 4.5ft 8s 7s 9 13 mph 1019.4mb 78f 74f
10:50am 4ft 10s 6s 11 13 mph 1018.8mb 78f 74f
9:50am 4ft 7s 6s 9 13 mph 1018.4mb 78f 74f
8:50am 4ft 7s 6s 11 13 mph 1018.5mb 78f 74f
7:50am 3.5ft 10s 6s 11 13 mph 1018.7mb 78f 74f
6:50am 3.5ft 8s 6s 9 13 mph 1018.9mb 78f 74f
5:50am 3.5ft 10s 6s 9 13 mph 1019.5mb 78f 74f
4:50am 3.5ft 10s 6s 11 13 mph 1020mb 78f 74f
3:50am 3.5ft 11s 6s 9 13 mph 1020.4mb 78f 74f
2:50am 3.5ft 10s 6s 11 13 mph 1020.4mb 78f 74f
1:50am 3ft 10s 6s 11 13 mph 1020.2mb 78f 73f
12:50am 3.5ft 10s 6s 9 11 mph 1020mb 78f 73f
Wed 12/17 11:50pm 3.5ft 10s 6s 9 13 mph 1019.7mb 78f 73f
10:50pm 3.5ft 11s 6s 9 11 mph 1019.3mb 78f 73f
9:50pm 3.5ft 10s 6s 11 16 mph 1018.8mb 78f 73f
8:50pm 3.5ft 10s 6s 11 13 mph 1018.6mb 79f 73f
7:50pm 3.5ft 11s 6s 11 16 mph 1018.5mb 79f 73f
6:50pm 3.5ft 10s 6s 13 18 mph 1018.7mb 79f 73f
5:50pm 3.5ft 10s 6s 13 16 mph 1019.3mb 79f 73f
4:50pm 3.5ft 11s 6s 13 18 mph 1020.2mb 79f 73f
3:50pm 4ft 10s 6s 11 16 mph 1021.2mb 78f 73f
2:50pm 4ft 11s 6s 11 13 mph 1021.6mb 78f 73f
1:50pm 4ft 11s 6s 11 13 mph 1021.3mb 78f 73f
12:50pm 3.5ft 11s 6s 11 13 mph 1020.7mb 78f 73f
11:50am 4ft 11s 6s 11 13 mph 1020.3mb 78f 73f
10:50am 4ft 8s 7s 16 20 mph 1019.7mb 78f 73f
9:50am 3.5ft 11s 6s 9 11 mph 1019.6mb 78f 73f
8:50am 3.5ft 9s 7s 11 13 mph 1019.7mb 78f 73f
7:50am 4ft 9s 7s 11 13 mph 1019.7mb 78f 73f
6:50am 3.5ft 7s 7s 9 13 mph 1020.1mb 78f 73f
5:50am 3.5ft 9s 7s 9 13 mph 1020.4mb 78f 73f
4:50am 4ft 8s 7s 7 9 mph 1021.1mb 78f 73f
3:50am 4ft 9s 7s 7 9 mph 1021.4mb 78f 73f
2:50am 4.5ft 8s 7s 7 9 mph 1021.7mb 78f 73f
1:50am 4ft 8s 7s 7 9 mph 1021.6mb 78f 73f
12:50am 4ft 8s 7s 4 9 mph 1021.3mb 78f 73f
Tue 12/16 11:50pm 4ft 10s 7s 7 9 mph 1021mb 78f 73f
10:50pm 4.5ft 8s 7s 7 9 mph 1020.6mb 78f 73f